sensor_id;sensor_type;location;lat;lon;timestamp;P1;durP1;ratioP1;P2;durP2;ratioP2
58820;SDS011;70670;52.476;13.334;2024-03-22T00:01:06;26.55;;;15.48;;
58820;SDS011;70670;52.476;13.334;2024-03-22T00:03:40;21.27;;;14.30;;
58820;SDS011;70670;52.476;13.334;2024-03-22T00:06:05;21.48;;;15.25;;
58820;SDS011;70670;52.476;13.334;2024-03-22T00:08:31;24.70;;;15.35;;
58820;SDS011;70670;52.476;13.334;2024-03-22T00:10:57;21.95;;;14.85;;
58820;SDS011;70670;52.476;13.334;2024-03-22T00:13:22;21.67;;;15.40;;
58820;SDS011;70670;52.476;13.334;2024-03-22T00:15:48;22.90;;;15.13;;
58820;SDS011;70670;52.476;13.334;2024-03-22T00:18:14;22.00;;;15.50;;
58820;SDS011;70670;52.476;13.334;2024-03-22T00:20:39;26.25;;;16.27;;
58820;SDS011;70670;52.476;13.334;2024-03-22T00:23:05;23.27;;;14.88;;
58820;SDS011;70670;52.476;13.334;2024-03-22T00:25:31;22.63;;;15.07;;
58820;SDS011;70670;52.476;13.334;2024-03-22T00:27:57;23.80;;;15.65;;
58820;SDS011;70670;52.476;13.334;2024-03-22T00:30:22;23.63;;;16.02;;
58820;SDS011;70670;52.476;13.334;2024-03-22T00:32:48;26.42;;;15.88;;
58820;SDS011;70670;52.476;13.334;2024-03-22T00:35:14;24.08;;;15.52;;
58820;SDS011;70670;52.476;13.334;2024-03-22T00:37:39;25.33;;;16.10;;
58820;SDS011;70670;52.476;13.334;2024-03-22T00:40:05;24.30;;;16.08;;
58820;SDS011;70670;52.476;13.334;2024-03-22T00:42:31;24.65;;;16.15;;
58820;SDS011;70670;52.476;13.334;2024-03-22T00:44:57;23.60;;;15.20;;
58820;SDS011;70670;52.476;13.334;2024-03-22T00:47:23;23.27;;;14.82;;
58820;SDS011;70670;52.476;13.334;2024-03-22T00:49:49;24.83;;;16.35;;
58820;SDS011;70670;52.476;13.334;2024-03-22T00:52:14;28.13;;;16.70;;
58820;SDS011;70670;52.476;13.334;2024-03-22T00:54:40;27.98;;;17.10;;
58820;SDS011;70670;52.476;13.334;2024-03-22T00:57:06;27.02;;;16.27;;
58820;SDS011;70670;52.476;13.334;2024-03-22T00:59:32;27.85;;;16.90;;
58820;SDS011;70670;52.476;13.334;2024-03-22T01:01:57;24.33;;;15.90;;
58820;SDS011;70670;52.476;13.334;2024-03-22T01:04:23;27.42;;;16.73;;
58820;SDS011;70670;52.476;13.334;2024-03-22T01:06:49;28.27;;;17.33;;
58820;SDS011;70670;52.476;13.334;2024-03-22T01:09:14;31.77;;;17.45;;
58820;SDS011;70670;52.476;13.334;2024-03-22T01:11:40;29.35;;;17.67;;
58820;SDS011;70670;52.476;13.334;2024-03-22T01:14:06;27.38;;;17.15;;
58820;SDS011;70670;52.476;13.334;2024-03-22T01:16:32;30.85;;;18.17;;
58820;SDS011;70670;52.476;13.334;2024-03-22T01:18:57;31.50;;;18.45;;
58820;SDS011;70670;52.476;13.334;2024-03-22T01:21:23;32.15;;;18.25;;
58820;SDS011;70670;52.476;13.334;2024-03-22T01:23:53;33.20;;;19.10;;
58820;SDS011;70670;52.476;13.334;2024-03-22T01:26:19;35.40;;;19.90;;
58820;SDS011;70670;52.476;13.334;2024-03-22T01:28:44;31.95;;;18.92;;
58820;SDS011;70670;52.476;13.334;2024-03-22T01:31:11;36.65;;;19.48;;
58820;SDS011;70670;52.476;13.334;2024-03-22T01:33:37;32.25;;;19.73;;
58820;SDS011;70670;52.476;13.334;2024-03-22T01:36:02;33.25;;;18.30;;
58820;SDS011;70670;52.476;13.334;2024-03-22T01:38:30;34.58;;;19.23;;
58820;SDS011;70670;52.476;13.334;2024-03-22T01:40:56;33.13;;;18.90;;
58820;SDS011;70670;52.476;13.334;2024-03-22T01:43:22;36.33;;;19.45;;
58820;SDS011;70670;52.476;13.334;2024-03-22T01:45:48;37.88;;;19.63;;
58820;SDS011;70670;52.476;13.334;2024-03-22T01:48:13;35.35;;;19.15;;
58820;SDS011;70670;52.476;13.334;2024-03-22T01:50:39;36.90;;;19.83;;
58820;SDS011;70670;52.476;13.334;2024-03-22T01:53:05;33.55;;;18.70;;
58820;SDS011;70670;52.476;13.334;2024-03-22T01:55:31;36.45;;;19.38;;
58820;SDS011;70670;52.476;13.334;2024-03-22T01:57:57;36.08;;;18.98;;
58820;SDS011;70670;52.476;13.334;2024-03-22T02:00:23;38.00;;;18.88;;
58820;SDS011;70670;52.476;13.334;2024-03-22T02:02:49;34.40;;;18.60;;
58820;SDS011;70670;52.476;13.334;2024-03-22T02:05:15;33.03;;;17.75;;
58820;SDS011;70670;52.476;13.334;2024-03-22T02:07:46;40.47;;;19.45;;
58820;SDS011;70670;52.476;13.334;2024-03-22T02:10:15;36.92;;;18.35;;
58820;SDS011;70670;52.476;13.334;2024-03-22T02:12:41;31.60;;;17.52;;
58820;SDS011;70670;52.476;13.334;2024-03-22T02:15:07;37.33;;;19.27;;
58820;SDS011;70670;52.476;13.334;2024-03-22T02:17:33;33.50;;;17.92;;
58820;SDS011;70670;52.476;13.334;2024-03-22T02:20:00;36.30;;;18.80;;
58820;SDS011;70670;52.476;13.334;2024-03-22T02:22:26;31.25;;;17.70;;
58820;SDS011;70670;52.476;13.334;2024-03-22T02:24:52;35.72;;;19.17;;
58820;SDS011;70670;52.476;13.334;2024-03-22T02:27:18;35.88;;;18.50;;
58820;SDS011;70670;52.476;13.334;2024-03-22T02:29:44;37.80;;;18.85;;
58820;SDS011;70670;52.476;13.334;2024-03-22T02:32:09;35.97;;;19.30;;
58820;SDS011;70670;52.476;13.334;2024-03-22T02:34:35;30.48;;;16.23;;
58820;SDS011;70670;52.476;13.334;2024-03-22T02:37:01;33.47;;;16.10;;
58820;SDS011;70670;52.476;13.334;2024-03-22T02:39:27;36.58;;;18.80;;
58820;SDS011;70670;52.476;13.334;2024-03-22T02:41:54;35.78;;;18.73;;
58820;SDS011;70670;52.476;13.334;2024-03-22T02:44:19;35.30;;;17.65;;
58820;SDS011;70670;52.476;13.334;2024-03-22T02:46:45;33.88;;;17.10;;
58820;SDS011;70670;52.476;13.334;2024-03-22T02:49:11;32.83;;;16.45;;
58820;SDS011;70670;52.476;13.334;2024-03-22T02:51:37;32.17;;;17.17;;
58820;SDS011;70670;52.476;13.334;2024-03-22T02:54:03;35.08;;;17.95;;
58820;SDS011;70670;52.476;13.334;2024-03-22T02:56:29;32.58;;;17.33;;
58820;SDS011;70670;52.476;13.334;2024-03-22T02:58:55;31.75;;;16.45;;
58820;SDS011;70670;52.476;13.334;2024-03-22T03:01:21;35.88;;;16.88;;
58820;SDS011;70670;52.476;13.334;2024-03-22T03:03:47;33.83;;;18.20;;
58820;SDS011;70670;52.476;13.334;2024-03-22T03:06:12;33.22;;;17.23;;
58820;SDS011;70670;52.476;13.334;2024-03-22T03:08:39;31.55;;;17.02;;
58820;SDS011;70670;52.476;13.334;2024-03-22T03:11:04;30.23;;;15.02;;
58820;SDS011;70670;52.476;13.334;2024-03-22T03:13:30;30.90;;;16.30;;
58820;SDS011;70670;52.476;13.334;2024-03-22T03:15:56;31.63;;;15.80;;
58820;SDS011;70670;52.476;13.334;2024-03-22T03:18:22;33.08;;;15.93;;
58820;SDS011;70670;52.476;13.334;2024-03-22T03:20:48;34.42;;;16.80;;
58820;SDS011;70670;52.476;13.334;2024-03-22T03:23:14;29.65;;;15.85;;
58820;SDS011;70670;52.476;13.334;2024-03-22T03:25:39;28.45;;;15.10;;
58820;SDS011;70670;52.476;13.334;2024-03-22T03:28:05;31.77;;;15.75;;
58820;SDS011;70670;52.476;13.334;2024-03-22T03:30:33;28.95;;;14.93;;
58820;SDS011;70670;52.476;13.334;2024-03-22T03:32:59;28.88;;;15.50;;
58820;SDS011;70670;52.476;13.334;2024-03-22T03:35:25;31.00;;;16.33;;
58820;SDS011;70670;52.476;13.334;2024-03-22T03:37:51;30.73;;;14.85;;
58820;SDS011;70670;52.476;13.334;2024-03-22T03:40:17;29.38;;;14.32;;
58820;SDS011;70670;52.476;13.334;2024-03-22T03:42:42;32.90;;;16.23;;
58820;SDS011;70670;52.476;13.334;2024-03-22T03:45:08;28.27;;;14.57;;
58820;SDS011;70670;52.476;13.334;2024-03-22T03:47:34;29.63;;;15.63;;
58820;SDS011;70670;52.476;13.334;2024-03-22T03:49:59;28.63;;;15.82;;
58820;SDS011;70670;52.476;13.334;2024-03-22T03:52:25;32.42;;;15.80;;
58820;SDS011;70670;52.476;13.334;2024-03-22T03:54:50;28.05;;;15.25;;
58820;SDS011;70670;52.476;13.334;2024-03-22T03:57:16;30.20;;;15.20;;
58820;SDS011;70670;52.476;13.334;2024-03-22T03:59:42;28.88;;;14.73;;
58820;SDS011;70670;52.476;13.334;2024-03-22T04:02:07;28.88;;;15.20;;
58820;SDS011;70670;52.476;13.334;2024-03-22T04:04:33;28.55;;;15.35;;
58820;SDS011;70670;52.476;13.334;2024-03-22T04:06:59;28.98;;;15.27;;
58820;SDS011;70670;52.476;13.334;2024-03-22T04:09:24;28.30;;;15.15;;
58820;SDS011;70670;52.476;13.334;2024-03-22T04:11:50;23.67;;;13.55;;
58820;SDS011;70670;52.476;13.334;2024-03-22T04:14:15;29.73;;;14.88;;
58820;SDS011;70670;52.476;13.334;2024-03-22T04:16:41;25.88;;;14.35;;
58820;SDS011;70670;52.476;13.334;2024-03-22T04:19:07;25.15;;;14.13;;
58820;SDS011;70670;52.476;13.334;2024-03-22T04:21:33;27.05;;;13.07;;
58820;SDS011;70670;52.476;13.334;2024-03-22T04:23:58;27.67;;;13.52;;
58820;SDS011;70670;52.476;13.334;2024-03-22T04:26:24;25.48;;;13.77;;
58820;SDS011;70670;52.476;13.334;2024-03-22T04:28:50;26.80;;;12.95;;
58820;SDS011;70670;52.476;13.334;2024-03-22T04:31:15;25.73;;;14.00;;
58820;SDS011;70670;52.476;13.334;2024-03-22T04:33:41;24.58;;;12.75;;
58820;SDS011;70670;52.476;13.334;2024-03-22T04:36:07;24.02;;;13.80;;
58820;SDS011;70670;52.476;13.334;2024-03-22T04:38:34;25.92;;;13.20;;
58820;SDS011;70670;52.476;13.334;2024-03-22T04:41:00;26.33;;;13.18;;
58820;SDS011;70670;52.476;13.334;2024-03-22T04:43:28;23.35;;;13.23;;
58820;SDS011;70670;52.476;13.334;2024-03-22T04:45:54;23.95;;;12.88;;
58820;SDS011;70670;52.476;13.334;2024-03-22T04:48:20;23.27;;;12.90;;
58820;SDS011;70670;52.476;13.334;2024-03-22T04:50:47;23.48;;;12.77;;
58820;SDS011;70670;52.476;13.334;2024-03-22T04:55:42;23.67;;;11.75;;
58820;SDS011;70670;52.476;13.334;2024-03-22T04:58:17;22.73;;;12.77;;
58820;SDS011;70670;52.476;13.334;2024-03-22T05:00:44;21.48;;;12.25;;
58820;SDS011;70670;52.476;13.334;2024-03-22T05:03:10;25.88;;;13.07;;
58820;SDS011;70670;52.476;13.334;2024-03-22T05:05:37;26.55;;;12.80;;
58820;SDS011;70670;52.476;13.334;2024-03-22T05:08:03;21.80;;;12.27;;
58820;SDS011;70670;52.476;13.334;2024-03-22T05:10:30;24.20;;;13.00;;
58820;SDS011;70670;52.476;13.334;2024-03-22T05:12:56;25.73;;;12.80;;
58820;SDS011;70670;52.476;13.334;2024-03-22T05:15:22;26.23;;;13.68;;
58820;SDS011;70670;52.476;13.334;2024-03-22T05:17:48;23.05;;;14.15;;
58820;SDS011;70670;52.476;13.334;2024-03-22T05:20:14;27.20;;;12.48;;
58820;SDS011;70670;52.476;13.334;2024-03-22T05:22:41;24.50;;;13.73;;
58820;SDS011;70670;52.476;13.334;2024-03-22T05:25:08;27.98;;;13.85;;
58820;SDS011;70670;52.476;13.334;2024-03-22T05:27:33;27.05;;;14.52;;
58820;SDS011;70670;52.476;13.334;2024-03-22T05:29:59;27.50;;;14.82;;
58820;SDS011;70670;52.476;13.334;2024-03-22T05:32:25;28.85;;;13.82;;
58820;SDS011;70670;52.476;13.334;2024-03-22T05:34:51;26.48;;;13.57;;
58820;SDS011;70670;52.476;13.334;2024-03-22T05:37:17;25.88;;;13.80;;
58820;SDS011;70670;52.476;13.334;2024-03-22T05:39:43;27.33;;;14.48;;
58820;SDS011;70670;52.476;13.334;2024-03-22T05:42:09;25.10;;;13.30;;
58820;SDS011;70670;52.476;13.334;2024-03-22T05:44:35;31.63;;;13.55;;
58820;SDS011;70670;52.476;13.334;2024-03-22T05:47:00;28.50;;;15.05;;
58820;SDS011;70670;52.476;13.334;2024-03-22T05:49:26;28.20;;;15.93;;
58820;SDS011;70670;52.476;13.334;2024-03-22T05:51:52;26.75;;;14.40;;
58820;SDS011;70670;52.476;13.334;2024-03-22T05:54:18;25.42;;;14.43;;
58820;SDS011;70670;52.476;13.334;2024-03-22T05:56:43;28.67;;;14.85;;
58820;SDS011;70670;52.476;13.334;2024-03-22T05:59:09;29.15;;;15.32;;
58820;SDS011;70670;52.476;13.334;2024-03-22T06:01:35;24.65;;;13.95;;
58820;SDS011;70670;52.476;13.334;2024-03-22T06:04:01;26.98;;;14.35;;
58820;SDS011;70670;52.476;13.334;2024-03-22T06:06:27;27.60;;;14.75;;
58820;SDS011;70670;52.476;13.334;2024-03-22T06:08:53;26.88;;;14.70;;
58820;SDS011;70670;52.476;13.334;2024-03-22T06:11:19;23.70;;;13.82;;
58820;SDS011;70670;52.476;13.334;2024-03-22T06:13:47;28.00;;;14.23;;
58820;SDS011;70670;52.476;13.334;2024-03-22T06:16:12;27.98;;;14.25;;
58820;SDS011;70670;52.476;13.334;2024-03-22T06:18:38;27.05;;;15.02;;
58820;SDS011;70670;52.476;13.334;2024-03-22T06:21:04;29.73;;;14.13;;
58820;SDS011;70670;52.476;13.334;2024-03-22T06:23:30;26.70;;;14.68;;
58820;SDS011;70670;52.476;13.334;2024-03-22T06:25:56;25.50;;;12.77;;
58820;SDS011;70670;52.476;13.334;2024-03-22T06:28:22;40.25;;;16.58;;
58820;SDS011;70670;52.476;13.334;2024-03-22T06:30:48;28.20;;;14.25;;
58820;SDS011;70670;52.476;13.334;2024-03-22T06:33:14;30.30;;;14.85;;
58820;SDS011;70670;52.476;13.334;2024-03-22T06:35:43;26.35;;;13.80;;
58820;SDS011;70670;52.476;13.334;2024-03-22T06:38:08;28.27;;;15.10;;
58820;SDS011;70670;52.476;13.334;2024-03-22T06:40:34;25.17;;;13.68;;
58820;SDS011;70670;52.476;13.334;2024-03-22T06:43:00;26.42;;;14.15;;
58820;SDS011;70670;52.476;13.334;2024-03-22T06:45:25;25.05;;;15.00;;
58820;SDS011;70670;52.476;13.334;2024-03-22T06:47:51;30.45;;;15.43;;
58820;SDS011;70670;52.476;13.334;2024-03-22T06:50:17;26.88;;;14.77;;
58820;SDS011;70670;52.476;13.334;2024-03-22T06:52:43;24.38;;;15.45;;
58820;SDS011;70670;52.476;13.334;2024-03-22T06:55:09;29.08;;;15.90;;
58820;SDS011;70670;52.476;13.334;2024-03-22T06:57:37;26.35;;;14.85;;
58820;SDS011;70670;52.476;13.334;2024-03-22T07:00:03;32.35;;;16.20;;
58820;SDS011;70670;52.476;13.334;2024-03-22T07:02:29;28.38;;;16.25;;
58820;SDS011;70670;52.476;13.334;2024-03-22T07:04:55;29.00;;;15.90;;
58820;SDS011;70670;52.476;13.334;2024-03-22T07:07:20;29.42;;;16.58;;
58820;SDS011;70670;52.476;13.334;2024-03-22T07:09:46;26.38;;;14.98;;
58820;SDS011;70670;52.476;13.334;2024-03-22T07:12:13;29.52;;;16.80;;
58820;SDS011;70670;52.476;13.334;2024-03-22T07:14:38;29.10;;;15.77;;
58820;SDS011;70670;52.476;13.334;2024-03-22T07:17:04;29.63;;;16.33;;
58820;SDS011;70670;52.476;13.334;2024-03-22T07:19:30;33.97;;;16.17;;
58820;SDS011;70670;52.476;13.334;2024-03-22T07:21:56;33.65;;;17.80;;
58820;SDS011;70670;52.476;13.334;2024-03-22T07:24:24;28.70;;;16.23;;
58820;SDS011;70670;52.476;13.334;2024-03-22T07:26:50;30.40;;;16.70;;
58820;SDS011;70670;52.476;13.334;2024-03-22T07:29:15;34.40;;;16.38;;
58820;SDS011;70670;52.476;13.334;2024-03-22T07:31:41;29.23;;;16.48;;
58820;SDS011;70670;52.476;13.334;2024-03-22T07:34:06;29.63;;;16.77;;
58820;SDS011;70670;52.476;13.334;2024-03-22T07:36:36;28.10;;;16.63;;
58820;SDS011;70670;52.476;13.334;2024-03-22T07:39:02;32.25;;;17.55;;
58820;SDS011;70670;52.476;13.334;2024-03-22T07:41:34;33.25;;;16.75;;
58820;SDS011;70670;52.476;13.334;2024-03-22T07:44:00;32.42;;;17.30;;
58820;SDS011;70670;52.476;13.334;2024-03-22T07:46:26;38.75;;;18.08;;
58820;SDS011;70670;52.476;13.334;2024-03-22T07:48:52;35.67;;;17.38;;
58820;SDS011;70670;52.476;13.334;2024-03-22T07:51:19;35.08;;;19.13;;
58820;SDS011;70670;52.476;13.334;2024-03-22T07:53:45;36.75;;;18.55;;
58820;SDS011;70670;52.476;13.334;2024-03-22T07:56:11;41.53;;;19.45;;
58820;SDS011;70670;52.476;13.334;2024-03-22T07:58:36;31.77;;;17.75;;
58820;SDS011;70670;52.476;13.334;2024-03-22T08:01:03;32.92;;;18.55;;
58820;SDS011;70670;52.476;13.334;2024-03-22T08:03:29;35.58;;;18.83;;
58820;SDS011;70670;52.476;13.334;2024-03-22T08:05:54;34.58;;;19.27;;
58820;SDS011;70670;52.476;13.334;2024-03-22T08:08:20;35.95;;;18.92;;
58820;SDS011;70670;52.476;13.334;2024-03-22T08:10:46;31.58;;;18.75;;
58820;SDS011;70670;52.476;13.334;2024-03-22T08:13:11;34.42;;;19.20;;
58820;SDS011;70670;52.476;13.334;2024-03-22T08:15:37;34.13;;;18.73;;
58820;SDS011;70670;52.476;13.334;2024-03-22T08:18:03;39.50;;;19.58;;
58820;SDS011;70670;52.476;13.334;2024-03-22T08:20:28;31.52;;;17.65;;
58820;SDS011;70670;52.476;13.334;2024-03-22T08:22:55;34.42;;;19.42;;
58820;SDS011;70670;52.476;13.334;2024-03-22T08:25:21;40.95;;;19.92;;
58820;SDS011;70670;52.476;13.334;2024-03-22T08:27:48;39.33;;;19.75;;
58820;SDS011;70670;52.476;13.334;2024-03-22T08:30:14;31.60;;;17.92;;
58820;SDS011;70670;52.476;13.334;2024-03-22T08:32:40;33.00;;;19.35;;
58820;SDS011;70670;52.476;13.334;2024-03-22T08:35:06;34.47;;;18.65;;
58820;SDS011;70670;52.476;13.334;2024-03-22T08:37:33;33.97;;;20.13;;
58820;SDS011;70670;52.476;13.334;2024-03-22T08:39:59;35.60;;;19.40;;
58820;SDS011;70670;52.476;13.334;2024-03-22T08:42:24;33.60;;;18.52;;
58820;SDS011;70670;52.476;13.334;2024-03-22T08:44:50;36.95;;;18.45;;
58820;SDS011;70670;52.476;13.334;2024-03-22T08:47:15;37.95;;;19.95;;
58820;SDS011;70670;52.476;13.334;2024-03-22T08:49:41;37.38;;;19.98;;
58820;SDS011;70670;52.476;13.334;2024-03-22T08:52:09;31.90;;;18.35;;
58820;SDS011;70670;52.476;13.334;2024-03-22T08:54:35;33.03;;;18.48;;
58820;SDS011;70670;52.476;13.334;2024-03-22T08:57:00;30.90;;;18.75;;
58820;SDS011;70670;52.476;13.334;2024-03-22T08:59:27;35.55;;;19.35;;
58820;SDS011;70670;52.476;13.334;2024-03-22T09:01:53;29.80;;;17.85;;
58820;SDS011;70670;52.476;13.334;2024-03-22T09:04:19;34.33;;;18.65;;
58820;SDS011;70670;52.476;13.334;2024-03-22T09:06:45;32.83;;;18.35;;
58820;SDS011;70670;52.476;13.334;2024-03-22T09:09:11;35.85;;;17.67;;
58820;SDS011;70670;52.476;13.334;2024-03-22T09:11:36;30.55;;;17.15;;
58820;SDS011;70670;52.476;13.334;2024-03-22T09:14:02;36.25;;;17.85;;
58820;SDS011;70670;52.476;13.334;2024-03-22T09:16:28;29.83;;;17.52;;
58820;SDS011;70670;52.476;13.334;2024-03-22T09:18:54;30.27;;;17.48;;
58820;SDS011;70670;52.476;13.334;2024-03-22T09:21:20;32.60;;;16.83;;
58820;SDS011;70670;52.476;13.334;2024-03-22T09:23:45;29.33;;;16.42;;
58820;SDS011;70670;52.476;13.334;2024-03-22T09:26:11;28.25;;;17.38;;
58820;SDS011;70670;52.476;13.334;2024-03-22T09:28:37;28.88;;;16.95;;
58820;SDS011;70670;52.476;13.334;2024-03-22T09:31:06;28.77;;;16.95;;
58820;SDS011;70670;52.476;13.334;2024-03-22T09:33:33;29.55;;;16.63;;
58820;SDS011;70670;52.476;13.334;2024-03-22T09:35:58;29.08;;;17.23;;
58820;SDS011;70670;52.476;13.334;2024-03-22T09:38:24;33.25;;;18.35;;
58820;SDS011;70670;52.476;13.334;2024-03-22T09:40:50;31.42;;;16.25;;
58820;SDS011;70670;52.476;13.334;2024-03-22T09:43:19;24.90;;;15.50;;
58820;SDS011;70670;52.476;13.334;2024-03-22T09:45:51;27.73;;;16.95;;
58820;SDS011;70670;52.476;13.334;2024-03-22T09:48:18;28.40;;;16.92;;
58820;SDS011;70670;52.476;13.334;2024-03-22T09:50:44;25.25;;;15.75;;
58820;SDS011;70670;52.476;13.334;2024-03-22T09:53:11;29.77;;;16.48;;
58820;SDS011;70670;52.476;13.334;2024-03-22T09:55:38;28.70;;;16.00;;
58820;SDS011;70670;52.476;13.334;2024-03-22T09:58:08;26.83;;;15.68;;
58820;SDS011;70670;52.476;13.334;2024-03-22T10:00:35;29.20;;;16.17;;
58820;SDS011;70670;52.476;13.334;2024-03-22T10:03:00;25.08;;;15.45;;
58820;SDS011;70670;52.476;13.334;2024-03-22T10:05:27;28.42;;;16.10;;
58820;SDS011;70670;52.476;13.334;2024-03-22T10:07:53;27.88;;;16.42;;
58820;SDS011;70670;52.476;13.334;2024-03-22T10:10:19;28.35;;;16.63;;
58820;SDS011;70670;52.476;13.334;2024-03-22T10:12:44;25.23;;;14.50;;
58820;SDS011;70670;52.476;13.334;2024-03-22T10:15:10;28.77;;;16.00;;
58820;SDS011;70670;52.476;13.334;2024-03-22T10:17:38;26.17;;;16.10;;
58820;SDS011;70670;52.476;13.334;2024-03-22T10:20:05;26.20;;;15.52;;
58820;SDS011;70670;52.476;13.334;2024-03-22T10:22:42;29.58;;;15.30;;
58820;SDS011;70670;52.476;13.334;2024-03-22T10:27:34;27.45;;;15.73;;
58820;SDS011;70670;52.476;13.334;2024-03-22T10:30:03;27.13;;;15.05;;
58820;SDS011;70670;52.476;13.334;2024-03-22T10:32:33;25.08;;;15.23;;
58820;SDS011;70670;52.476;13.334;2024-03-22T10:35:00;24.90;;;15.13;;
58820;SDS011;70670;52.476;13.334;2024-03-22T10:37:31;28.77;;;16.13;;
58820;SDS011;70670;52.476;13.334;2024-03-22T10:39:58;24.58;;;14.98;;
58820;SDS011;70670;52.476;13.334;2024-03-22T10:42:34;27.92;;;15.23;;
58820;SDS011;70670;52.476;13.334;2024-03-22T10:45:00;24.83;;;14.32;;
58820;SDS011;70670;52.476;13.334;2024-03-22T10:47:27;24.33;;;15.18;;
58820;SDS011;70670;52.476;13.334;2024-03-22T10:49:56;26.20;;;14.40;;
58820;SDS011;70670;52.476;13.334;2024-03-22T10:52:33;23.30;;;14.43;;
58820;SDS011;70670;52.476;13.334;2024-03-22T10:55:01;21.90;;;13.82;;
58820;SDS011;70670;52.476;13.334;2024-03-22T10:57:29;21.58;;;13.85;;
58820;SDS011;70670;52.476;13.334;2024-03-22T10:59:56;21.63;;;13.70;;
58820;SDS011;70670;52.476;13.334;2024-03-22T11:02:25;23.60;;;12.90;;
58820;SDS011;70670;52.476;13.334;2024-03-22T11:04:58;23.05;;;13.07;;
58820;SDS011;70670;52.476;13.334;2024-03-22T11:07:30;24.25;;;13.02;;
58820;SDS011;70670;52.476;13.334;2024-03-22T11:09:56;22.08;;;12.73;;
58820;SDS011;70670;52.476;13.334;2024-03-22T11:12:25;24.52;;;13.43;;
58820;SDS011;70670;52.476;13.334;2024-03-22T11:14:55;22.80;;;13.25;;
58820;SDS011;70670;52.476;13.334;2024-03-22T11:19:50;21.27;;;12.35;;
58820;SDS011;70670;52.476;13.334;2024-03-22T11:22:19;19.33;;;12.60;;
58820;SDS011;70670;52.476;13.334;2024-03-22T11:24:44;22.50;;;13.35;;
58820;SDS011;70670;52.476;13.334;2024-03-22T11:27:10;20.92;;;12.15;;
58820;SDS011;70670;52.476;13.334;2024-03-22T11:29:36;22.02;;;12.60;;
58820;SDS011;70670;52.476;13.334;2024-03-22T11:32:06;23.60;;;13.73;;
58820;SDS011;70670;52.476;13.334;2024-03-22T11:34:37;23.42;;;11.95;;
58820;SDS011;70670;52.476;13.334;2024-03-22T11:37:04;24.02;;;13.50;;
58820;SDS011;70670;52.476;13.334;2024-03-22T11:39:32;27.10;;;12.30;;
58820;SDS011;70670;52.476;13.334;2024-03-22T11:41:57;20.25;;;11.98;;
58820;SDS011;70670;52.476;13.334;2024-03-22T11:44:23;20.67;;;12.63;;
58820;SDS011;70670;52.476;13.334;2024-03-22T11:46:51;19.05;;;11.80;;
58820;SDS011;70670;52.476;13.334;2024-03-22T11:49:17;24.40;;;13.63;;
58820;SDS011;70670;52.476;13.334;2024-03-22T11:51:44;21.83;;;13.23;;
58820;SDS011;70670;52.476;13.334;2024-03-22T11:54:10;20.80;;;12.38;;
58820;SDS011;70670;52.476;13.334;2024-03-22T11:56:36;26.27;;;12.95;;
58820;SDS011;70670;52.476;13.334;2024-03-22T11:59:01;30.02;;;16.13;;
58820;SDS011;70670;52.476;13.334;2024-03-22T12:01:29;28.30;;;15.02;;
58820;SDS011;70670;52.476;13.334;2024-03-22T12:03:55;26.48;;;14.82;;
58820;SDS011;70670;52.476;13.334;2024-03-22T12:06:21;35.38;;;16.05;;
58820;SDS011;70670;52.476;13.334;2024-03-22T12:08:47;25.73;;;14.65;;
58820;SDS011;70670;52.476;13.334;2024-03-22T12:11:13;26.48;;;14.73;;
58820;SDS011;70670;52.476;13.334;2024-03-22T12:13:39;25.40;;;14.70;;
58820;SDS011;70670;52.476;13.334;2024-03-22T12:16:05;27.33;;;15.52;;
58820;SDS011;70670;52.476;13.334;2024-03-22T12:18:32;24.80;;;15.23;;
58820;SDS011;70670;52.476;13.334;2024-03-22T12:20:58;26.65;;;16.08;;
58820;SDS011;70670;52.476;13.334;2024-03-22T12:23:24;28.63;;;15.55;;
58820;SDS011;70670;52.476;13.334;2024-03-22T12:25:50;30.67;;;16.92;;
58820;SDS011;70670;52.476;13.334;2024-03-22T12:28:17;29.75;;;16.65;;
58820;SDS011;70670;52.476;13.334;2024-03-22T12:30:43;31.75;;;17.33;;
58820;SDS011;70670;52.476;13.334;2024-03-22T12:33:08;32.78;;;18.05;;
58820;SDS011;70670;52.476;13.334;2024-03-22T12:35:39;30.55;;;17.00;;
58820;SDS011;70670;52.476;13.334;2024-03-22T12:40:30;33.65;;;16.83;;
58820;SDS011;70670;52.476;13.334;2024-03-22T12:42:58;31.38;;;17.77;;
58820;SDS011;70670;52.476;13.334;2024-03-22T12:45:24;36.85;;;18.48;;
58820;SDS011;70670;52.476;13.334;2024-03-22T12:47:50;34.55;;;19.52;;
58820;SDS011;70670;52.476;13.334;2024-03-22T12:50:16;38.00;;;18.88;;
58820;SDS011;70670;52.476;13.334;2024-03-22T12:52:41;34.67;;;17.88;;
58820;SDS011;70670;52.476;13.334;2024-03-22T12:55:09;36.97;;;18.77;;
58820;SDS011;70670;52.476;13.334;2024-03-22T12:57:35;36.17;;;18.88;;
58820;SDS011;70670;52.476;13.334;2024-03-22T13:00:01;35.55;;;18.50;;
58820;SDS011;70670;52.476;13.334;2024-03-22T13:02:28;35.78;;;18.55;;
58820;SDS011;70670;52.476;13.334;2024-03-22T13:04:54;42.28;;;20.52;;
58820;SDS011;70670;52.476;13.334;2024-03-22T13:07:20;32.38;;;17.73;;
58820;SDS011;70670;52.476;13.334;2024-03-22T13:09:45;31.48;;;16.63;;
58820;SDS011;70670;52.476;13.334;2024-03-22T13:12:11;32.05;;;16.52;;
58820;SDS011;70670;52.476;13.334;2024-03-22T13:14:37;32.30;;;15.85;;
58820;SDS011;70670;52.476;13.334;2024-03-22T13:17:02;30.40;;;16.23;;
58820;SDS011;70670;52.476;13.334;2024-03-22T13:19:28;31.13;;;16.25;;
58820;SDS011;70670;52.476;13.334;2024-03-22T13:21:54;29.13;;;15.23;;
58820;SDS011;70670;52.476;13.334;2024-03-22T13:24:19;28.23;;;15.02;;
58820;SDS011;70670;52.476;13.334;2024-03-22T13:26:45;33.03;;;15.43;;
58820;SDS011;70670;52.476;13.334;2024-03-22T13:29:11;28.52;;;14.32;;
58820;SDS011;70670;52.476;13.334;2024-03-22T13:31:39;24.52;;;12.82;;
58820;SDS011;70670;52.476;13.334;2024-03-22T13:34:05;26.58;;;14.15;;
58820;SDS011;70670;52.476;13.334;2024-03-22T13:36:30;28.85;;;14.35;;
58820;SDS011;70670;52.476;13.334;2024-03-22T13:38:58;29.52;;;14.32;;
58820;SDS011;70670;52.476;13.334;2024-03-22T13:41:24;28.35;;;13.75;;
58820;SDS011;70670;52.476;13.334;2024-03-22T13:43:49;24.55;;;13.32;;
58820;SDS011;70670;52.476;13.334;2024-03-22T13:46:15;27.83;;;14.85;;
58820;SDS011;70670;52.476;13.334;2024-03-22T13:48:43;28.20;;;14.07;;
58820;SDS011;70670;52.476;13.334;2024-03-22T13:51:08;24.67;;;13.27;;
58820;SDS011;70670;52.476;13.334;2024-03-22T13:53:35;22.23;;;12.48;;
58820;SDS011;70670;52.476;13.334;2024-03-22T13:56:02;27.33;;;13.50;;
58820;SDS011;70670;52.476;13.334;2024-03-22T13:58:28;25.33;;;13.73;;
58820;SDS011;70670;52.476;13.334;2024-03-22T14:00:53;28.65;;;15.50;;
58820;SDS011;70670;52.476;13.334;2024-03-22T14:03:19;31.45;;;16.40;;
58820;SDS011;70670;52.476;13.334;2024-03-22T14:05:45;34.63;;;17.02;;
58820;SDS011;70670;52.476;13.334;2024-03-22T14:08:10;33.38;;;16.98;;
58820;SDS011;70670;52.476;13.334;2024-03-22T14:10:37;35.08;;;18.73;;
58820;SDS011;70670;52.476;13.334;2024-03-22T14:13:03;35.20;;;19.08;;